Terminal Aerodrome Forecast
Issued by NWS

Home | Current Version | Previous Version | Text Only | Print | Product List | Glossary On
Versions: 1 2 3 4 5 6 7 8 9 10 11 12 13 14 15 16 17 18 19 20 21 22
571
FTUS43 KGRR 010533
TAFAZO
TAF
KAZO 010533Z 0106/0206 VRB03KT 3/4SM BR VV002
     FM010800 13010KT P6SM VCSH OVC008
      TEMPO 0108/0110 1SM -SHRA BR OVC004
     FM011200 19016G28KT P6SM VCSH BKN035
     FM012200 21017G28KT 4SM -SHRA BR OVC025
     FM020300 21016G28KT 4SM -SHRA BR OVC008=

USA.gov is the U.S. government's official web portal to all federal, state and local government web resources and services.